Aeroporto :
LOGIN :

Iscrizione | Disclaimer

   EN    FR    IT 

 










Sommario :    VFR   VFR Marginale   IFR   IFR Intensivo   IFR Molto Intensivo
Visibilità : 
Base nubi : 
>= 8 km
>= 3000ft
5 / 8 km
1000 / 3000 ft
1500m / 5 km
500 / 1000 ft
800 / 1500m
200 / 500 ft
< 800m
< 200 ft
Simboli :   Temporali  Nebbia  Neve Forte  Precipitazioni Forti  Vento > 20 kt
SIGMETs :   Varie  Temporali  Ghiacco  Turbolenza  Onda orograficha  Ceneri Vulcaniche






- Altitudine del aeroporto : 392 ft
- Codice IATA : CDG


LFPG - Paris-Aeroport Charles De Gaulle

ULTIMO METAR :
  • 231400Z 03007KT 350V070 CAVOK 12/M06 Q1019 NOSIG

METARs OBSOLETI :
  • 231330Z 35007KT 280V050 CAVOK 11/M06 Q1020 NOSIG
  • 231300Z 01010KT 330V040 CAVOK 11/M04 Q1020 NOSIG
  • 231230Z 03008KT 340V080 CAVOK 10/M05 Q1020 NOSIG
  • 231200Z 36009KT 250V030 CAVOK 10/M04 Q1020 NOSIG
  • 231130Z 02008KT 320V070 CAVOK 10/M04 Q1021 NOSIG
  • 231100Z 01009G21KT 330V050 CAVOK 10/M04 Q1021 NOSIG
  • 231030Z 03007G19KT 340V080 CAVOK 09/M04 Q1021 NOSIG
  • 231000Z 36009KT 330V040 9999 FEW040 08/M05 Q1021 NOSIG

TAF TAF LFPG
Valido dal 23 a 12 ore il 24 a 18 ore UTC


231100Z 2312/2418 36010KT CAVOK TX11/2315Z TN04/2406Z
PROB40
TEMPO 2400/2406 4000 -RA BKN014
PROB30
TEMPO 2400/2403 2000 -DZRA BKN008
TEMPO 2407/2418 4000 -SHRA SCT030TCU
PROB40
TEMPO 2409/2411 2500 SHRA
PROB40
TEMPO 2412/2418 32015G25KT
ATIS : +33 1 48 62 10 92



MetMap, La meteo Aeronautica in un colpo d'occhio ! - Copyright ORBIFLY Dicembre 2007 - Disclaimer

ORBIFLY MET'MAP TEAM :

Programmazione e sviluppo : Alexandra Zaïnal
Concezione : Baudouin d'Aumeries
Supporto tecnico e logistico : Manuel Goepfert
Aiuto : Marc-Olivier Méhu
Aiuto per la traduzione : Arnaldo La Scala




FONTI E CREDITI :

   NOAA